Time;durP1;ratioP1;P1;durP2;ratioP2;P2;SDS_P1;SDS_P2;PMS_P1;PMS_P2;Temp;Humidity;BMP_temperature;BMP_pressure;BME280_temperature;BME280_humidity;BME280_pressure;Samples;Min_cycle;Max_cycle;Signal;HPM_P1;HPM_P2
2021/08/21 00:01:19;;;;;;;5.10;2.57;;;16.70;1.00;;;;;;4965833;28;20185;-84
2021/08/21 00:03:45;;;;;;;2.93;2.43;;;16.70;1.00;;;;;;4961640;28;20203;-84
2021/08/21 00:06:10;;;;;;;2.53;2.27;;;16.60;1.00;;;;;;4958684;28;20202;-85
2021/08/21 00:08:37;;;;;;;4.30;2.67;;;16.60;1.00;;;;;;4952484;28;20212;-85
2021/08/21 00:11:03;;;;;;;3.47;2.70;;;16.40;1.00;;;;;;4959451;28;20201;-85
2021/08/21 00:13:28;;;;;;;3.40;2.57;;;16.40;1.00;;;;;;4965854;28;20231;-85
2021/08/21 00:15:54;;;;;;;2.73;2.50;;;16.40;1.00;;;;;;4954695;29;20235;-84
2021/08/21 00:18:20;;;;;;;3.40;2.90;;;16.30;1.00;;;;;;4960929;28;20251;-85
2021/08/21 00:20:46;;;;;;;5.37;2.87;;;16.20;1.00;;;;;;4964150;28;20260;-84
2021/08/21 00:23:11;;;;;;;3.57;2.63;;;16.20;1.00;;;;;;4950262;28;20197;-84
2021/08/21 00:25:37;;;;;;;3.73;2.43;;;16.20;1.00;;;;;;4960813;28;20199;-84
2021/08/21 00:28:03;;;;;;;3.23;2.90;;;16.10;1.00;;;;;;4960422;28;20238;-85
2021/08/21 00:30:29;;;;;;;4.77;2.77;;;16.20;1.00;;;;;;4962029;28;20750;-84
2021/08/21 00:32:55;;;;;;;3.10;2.50;;;;;;;;;;4960794;28;20203;-84
2021/08/21 00:35:21;;;;;;;6.10;3.10;;;16.20;1.00;;;;;;4952336;28;20213;-84
2021/08/21 00:37:47;;;;;;;3.23;2.50;;;;;;;;;;4962865;28;20203;-85
2021/08/21 00:40:13;;;;;;;3.40;3.03;;;16.30;1.00;;;;;;4960095;29;20193;-84
2021/08/21 00:42:39;;;;;;;3.80;2.70;;;16.40;1.00;;;;;;4952478;28;20221;-85
2021/08/21 00:45:06;;;;;;;4.03;2.70;;;16.50;1.00;;;;;;4961172;28;20208;-85
2021/08/21 00:47:32;;;;;;;2.73;2.30;;;16.40;1.00;;;;;;4948944;28;20196;-85
2021/08/21 00:49:58;;;;;;;2.97;2.77;;;16.50;1.00;;;;;;4957753;28;20350;-87
2021/08/21 00:52:32;;;;;;;3.30;2.27;;;16.50;1.00;;;;;;4960122;28;20292;-87
2021/08/21 00:54:58;;;;;;;3.13;2.33;;;16.40;1.00;;;;;;4953359;28;20212;-86
2021/08/21 00:57:25;;;;;;;2.30;2.10;;;16.40;1.00;;;;;;4956973;28;20197;-87
2021/08/21 00:59:51;;;;;;;2.90;2.43;;;16.50;1.00;;;;;;4951602;28;20211;-88
2021/08/21 01:02:18;;;;;;;2.80;2.43;;;16.40;1.00;;;;;;4959680;29;20223;-87
2021/08/21 01:04:54;;;;;;;4.90;3.13;;;16.50;1.00;;;;;;4969166;28;20697;-87
2021/08/21 01:07:24;;;;;;;2.90;2.57;;;16.50;1.00;;;;;;4962010;28;20627;-87
2021/08/21 01:09:50;;;;;;;5.50;2.90;;;16.50;1.00;;;;;;4958316;28;20236;-87
2021/08/21 01:12:20;;;;;;;2.80;2.50;;;16.60;1.00;;;;;;4960975;28;20214;-85
2021/08/21 01:14:47;;;;;;;3.67;2.83;;;16.50;1.00;;;;;;4961751;28;20318;-86
2021/08/21 01:17:14;;;;;;;3.40;2.33;;;16.50;1.00;;;;;;4960104;28;20199;-86
2021/08/21 01:19:43;;;;;;;3.27;2.70;;;16.50;1.00;;;;;;4959491;28;20205;-86
2021/08/21 01:22:10;;;;;;;5.57;2.77;;;16.50;1.00;;;;;;4941613;29;20216;-87
2021/08/21 01:24:37;;;;;;;4.47;2.97;;;16.50;1.00;;;;;;4959545;28;20199;-86
2021/08/21 01:27:03;;;;;;;6.00;3.07;;;16.50;1.00;;;;;;4959246;28;20194;-86
2021/08/21 01:29:29;;;;;;;4.50;3.83;;;16.40;1.00;;;;;;4959187;28;20734;-87
2021/08/21 01:31:54;;;;;;;4.73;3.10;;;16.30;1.00;;;;;;4957769;29;20187;-87
2021/08/21 01:34:20;;;;;;;3.93;3.40;;;16.30;1.00;;;;;;4956661;29;20189;-86
2021/08/21 01:36:49;;;;;;;4.93;3.70;;;16.30;1.00;;;;;;4959190;28;20922;-88
2021/08/21 01:39:16;;;;;;;4.17;3.43;;;16.30;1.00;;;;;;4959590;28;20191;-88
2021/08/21 01:41:42;;;;;;;3.53;3.17;;;16.20;1.00;;;;;;4959573;28;20188;-87
2021/08/21 01:44:10;;;;;;;5.93;3.40;;;16.30;1.00;;;;;;4958389;28;20258;-87
2021/08/21 01:46:35;;;;;;;3.77;3.30;;;16.20;1.00;;;;;;4967896;28;20266;-86
2021/08/21 01:49:02;;;;;;;3.90;3.40;;;16.20;1.00;;;;;;4959287;28;20196;-88
2021/08/21 01:51:33;;;;;;;4.23;3.27;;;16.20;1.00;;;;;;4957063;28;20203;-88
2021/08/21 01:53:59;;;;;;;4.47;3.20;;;16.20;1.00;;;;;;4960281;28;20198;-86
2021/08/21 01:56:26;;;;;;;3.27;2.97;;;16.20;1.00;;;;;;4960604;28;20230;-87
2021/08/21 01:58:52;;;;;;;5.43;3.27;;;16.20;1.00;;;;;;4983208;28;20198;-87
2021/08/21 02:01:18;;;;;;;4.30;3.20;;;16.20;1.00;;;;;;4966235;28;20202;-87
2021/08/21 02:03:46;;;;;;;4.10;3.47;;;16.20;1.00;;;;;;4962258;28;20269;-87
2021/08/21 02:06:13;;;;;;;4.13;3.37;;;16.20;1.00;;;;;;4962631;28;20207;-87
2021/08/21 02:08:39;;;;;;;3.70;3.23;;;16.20;1.00;;;;;;4965980;28;20663;-88
2021/08/21 02:11:05;;;;;;;3.60;3.10;;;16.30;1.00;;;;;;4958108;28;20210;-87
2021/08/21 02:13:31;;;;;;;4.03;3.53;;;16.30;1.00;;;;;;4964801;28;20221;-87
2021/08/21 02:15:56;;;;;;;4.50;3.23;;;16.30;1.00;;;;;;4962494;29;20211;-86
2021/08/21 02:18:22;;;;;;;5.00;3.30;;;16.30;1.00;;;;;;4962841;28;20194;-87
2021/08/21 02:20:47;;;;;;;4.97;3.87;;;16.20;1.00;;;;;;4949836;28;20834;-88
2021/08/21 02:23:13;;;;;;;4.10;3.33;;;16.30;1.00;;;;;;4954467;28;20288;-88
2021/08/21 02:25:39;;;;;;;4.03;3.40;;;16.30;1.00;;;;;;4962982;28;20256;-88
2021/08/21 02:28:10;;;;;;;3.67;3.37;;;16.40;1.00;;;;;;4944892;28;20230;-89
2021/08/21 02:30:39;;;;;;;5.50;3.83;;;16.20;1.00;;;;;;4961611;28;20199;-86
2021/08/21 02:33:05;;;;;;;3.57;3.20;;;16.20;1.00;;;;;;4961567;28;20279;-88
2021/08/21 02:35:32;;;;;;;3.70;3.30;;;16.20;1.00;;;;;;4962893;29;20219;-88
2021/08/21 02:37:58;;;;;;;3.30;3.00;;;;;;;;;;4962363;29;20349;-86
2021/08/21 02:40:24;;;;;;;3.73;3.20;;;16.20;1.00;;;;;;4970073;28;20180;-87
2021/08/21 02:42:50;;;;;;;4.50;3.00;;;16.20;1.00;;;;;;4961546;28;20261;-86
2021/08/21 02:45:16;;;;;;;2.73;2.53;;;16.20;1.00;;;;;;4949833;28;20219;-87
2021/08/21 02:47:41;;;;;;;3.90;2.97;;;16.20;1.00;;;;;;4962604;28;20202;-87
2021/08/21 02:50:08;;;;;;;4.27;2.93;;;16.20;1.00;;;;;;4957911;28;20213;-86
2021/08/21 02:52:34;;;;;;;4.03;3.10;;;16.20;1.00;;;;;;4959487;28;20284;-86
2021/08/21 02:54:59;;;;;;;2.97;2.70;;;16.20;1.00;;;;;;4963785;28;20227;-87
2021/08/21 02:57:25;;;;;;;3.30;2.73;;;16.20;1.00;;;;;;4961301;29;20221;-87
2021/08/21 02:59:51;;;;;;;4.10;2.90;;;16.20;1.00;;;;;;4964098;28;20254;-86
2021/08/21 03:02:16;;;;;;;3.93;3.53;;;16.10;1.00;;;;;;4961752;28;20299;-86
2021/08/21 03:04:42;;;;;;;3.40;3.10;;;16.10;1.00;;;;;;4965846;28;20205;-86
2021/08/21 03:07:07;;;;;;;7.20;3.07;;;16.20;1.00;;;;;;4962375;28;20619;-87
2021/08/21 03:09:33;;;;;;;3.67;3.30;;;15.20;1.00;;;;;;4961955;28;20203;-88
2021/08/21 03:11:59;;;;;;;4.27;3.20;;;16.10;1.00;;;;;;4954813;28;20238;-86
2021/08/21 03:14:24;;;;;;;4.53;3.43;;;16.10;1.00;;;;;;4960862;28;20191;-87
2021/08/21 03:16:50;;;;;;;4.00;3.60;;;16.10;1.00;;;;;;4946455;28;20768;-86
2021/08/21 03:19:16;;;;;;;3.60;3.30;;;16.00;1.00;;;;;;4944371;28;20197;-87
2021/08/21 03:21:41;;;;;;;3.87;3.43;;;16.10;1.00;;;;;;4958349;28;20253;-87
2021/08/21 03:24:07;;;;;;;3.77;3.20;;;16.00;1.00;;;;;;4955989;28;20190;-87
2021/08/21 03:26:33;;;;;;;3.73;3.33;;;15.90;1.00;;;;;;4945818;29;20191;-88
2021/08/21 03:28:58;;;;;;;4.63;3.57;;;15.90;1.00;;;;;;4958914;28;20204;-87
2021/08/21 03:31:24;;;;;;;4.23;3.83;;;15.80;1.00;;;;;;4963118;29;20234;-86
2021/08/21 03:33:49;;;;;;;4.57;3.93;;;15.80;1.00;;;;;;4960254;28;20201;-87
2021/08/21 03:36:15;;;;;;;4.73;3.47;;;15.80;1.00;;;;;;4959809;29;20657;-87
2021/08/21 03:38:41;;;;;;;4.30;3.73;;;15.80;1.00;;;;;;4958624;28;20216;-87
2021/08/21 03:41:06;;;;;;;4.57;3.90;;;15.70;1.00;;;;;;4968083;28;20285;-88
2021/08/21 03:43:33;;;;;;;5.30;4.13;;;15.80;1.00;;;;;;4968011;28;20244;-86
2021/08/21 03:45:59;;;;;;;5.03;3.63;;;15.70;1.00;;;;;;4956969;28;20189;-86
2021/08/21 03:48:24;;;;;;;3.90;3.30;;;15.70;1.00;;;;;;4961531;28;20214;-87
2021/08/21 03:50:50;;;;;;;4.50;3.87;;;15.70;1.00;;;;;;4961185;28;20199;-86
2021/08/21 03:53:16;;;;;;;4.33;3.93;;;15.70;1.00;;;;;;4962265;28;20180;-87
2021/08/21 03:55:41;;;;;;;4.20;3.67;;;15.70;1.00;;;;;;4952721;28;20201;-86
2021/08/21 03:58:07;;;;;;;4.40;3.20;;;15.70;1.00;;;;;;4979192;28;20209;-87
2021/08/21 04:00:32;;;;;;;9.90;4.43;;;15.70;1.00;;;;;;4944899;28;20198;-86
2021/08/21 04:02:58;;;;;;;4.00;3.37;;;15.70;1.00;;;;;;4950891;28;20292;-86
2021/08/21 04:05:26;;;;;;;7.73;3.33;;;15.70;1.00;;;;;;4966979;28;20191;-87
2021/08/21 04:07:51;;;;;;;3.87;3.47;;;15.60;1.00;;;;;;4952217;28;20182;-87
2021/08/21 04:10:17;;;;;;;3.70;3.40;;;15.70;1.00;;;;;;4957941;28;20264;-87
2021/08/21 04:12:43;;;;;;;4.87;3.97;;;15.60;1.00;;;;;;4960023;28;20270;-88
2021/08/21 04:15:09;;;;;;;4.77;3.90;;;15.50;1.00;;;;;;4961914;28;20704;-86
2021/08/21 04:17:34;;;;;;;4.83;4.33;;;15.60;1.00;;;;;;4959827;28;20194;-87
2021/08/21 04:20:03;;;;;;;3.83;3.40;;;15.60;1.00;;;;;;4960068;28;20193;-86
2021/08/21 04:22:31;;;;;;;5.33;4.13;;;15.60;1.00;;;;;;4960633;28;20289;-87
2021/08/21 04:24:56;;;;;;;7.27;3.70;;;15.60;1.00;;;;;;4960908;29;20207;-87
2021/08/21 04:27:23;;;;;;;5.80;4.10;;;15.50;1.00;;;;;;4957700;28;20289;-86
2021/08/21 04:29:48;;;;;;;6.00;3.80;;;15.50;1.00;;;;;;4947469;28;20226;-87
2021/08/21 04:32:14;;;;;;;5.43;4.20;;;15.60;1.00;;;;;;4971143;28;20197;-87
2021/08/21 04:34:40;;;;;;;5.00;4.20;;;15.60;1.00;;;;;;4958441;28;20197;-86
2021/08/21 04:37:05;;;;;;;5.17;4.07;;;15.70;1.00;;;;;;4962048;28;20226;-86
2021/08/21 04:39:31;;;;;;;4.43;4.03;;;15.60;1.00;;;;;;4960950;28;20664;-87
2021/08/21 04:41:58;;;;;;;4.20;3.80;;;15.60;1.00;;;;;;4960933;29;20206;-88
2021/08/21 04:44:23;;;;;;;6.87;4.30;;;15.60;1.00;;;;;;4958672;29;20186;-85
2021/08/21 04:46:49;;;;;;;4.93;4.43;;;15.60;1.00;;;;;;4962903;28;20296;-85
2021/08/21 04:49:14;;;;;;;7.07;4.23;;;15.60;1.00;;;;;;4965301;28;20187;-87
2021/08/21 04:51:40;;;;;;;5.23;4.10;;;15.60;1.00;;;;;;4958270;28;20199;-88
2021/08/21 04:54:06;;;;;;;4.97;4.37;;;15.60;1.00;;;;;;4959411;28;20690;-87
2021/08/21 04:56:31;;;;;;;4.40;4.00;;;15.70;1.00;;;;;;4963134;28;20268;-87
2021/08/21 04:58:58;;;;;;;4.87;4.20;;;15.80;1.00;;;;;;4962460;28;20182;-86
2021/08/21 05:01:24;;;;;;;4.17;3.40;;;15.80;1.00;;;;;;4957419;28;20672;-87
2021/08/21 05:03:49;;;;;;;4.63;3.80;;;15.70;1.00;;;;;;4962475;28;20200;-87
2021/08/21 05:06:15;;;;;;;5.73;4.07;;;15.70;1.00;;;;;;4961342;29;20205;-86
2021/08/21 05:08:41;;;;;;;4.73;4.07;;;15.80;1.00;;;;;;4953920;29;20192;-87
2021/08/21 05:11:06;;;;;;;5.47;3.90;;;15.90;1.00;;;;;;4954920;28;20259;-87
2021/08/21 05:13:32;;;;;;;5.17;4.27;;;16.00;1.00;;;;;;4960002;28;20351;-87
2021/08/21 05:15:58;;;;;;;5.50;3.80;;;16.00;1.00;;;;;;4962590;28;20206;-85
2021/08/21 05:18:31;;;;;;;6.27;3.87;;;16.10;1.00;;;;;;4961194;28;20272;-87
2021/08/21 05:21:05;;;;;;;4.23;3.80;;;16.20;1.00;;;;;;4962060;28;20189;-87
2021/08/21 05:23:33;;;;;;;6.70;3.53;;;16.30;1.00;;;;;;4956893;28;20249;-87
2021/08/21 05:25:58;;;;;;;5.70;3.60;;;16.30;1.00;;;;;;4961798;28;20207;-86
2021/08/21 05:28:24;;;;;;;4.80;3.60;;;16.30;1.00;;;;;;4965448;28;20195;-87
2021/08/21 05:30:50;;;;;;;5.37;3.47;;;16.30;1.00;;;;;;4968597;28;20689;-87
2021/08/21 05:33:17;;;;;;;4.73;3.57;;;16.30;1.00;;;;;;4953455;28;20228;-86
2021/08/21 05:35:43;;;;;;;4.73;3.57;;;16.30;1.00;;;;;;4956660;28;20267;-86
2021/08/21 05:38:10;;;;;;;4.50;3.87;;;16.30;1.00;;;;;;4959036;29;20207;-85
2021/08/21 05:40:36;;;;;;;4.00;3.43;;;16.30;1.00;;;;;;4981265;28;20191;-86
2021/08/21 05:43:02;;;;;;;4.27;3.87;;;16.40;1.00;;;;;;4959572;28;20196;-86
2021/08/21 05:45:29;;;;;;;4.70;3.90;;;16.50;1.00;;;;;;4959957;28;20203;-86
2021/08/21 05:47:55;;;;;;;4.43;3.73;;;16.50;1.00;;;;;;4962460;28;20201;-85
2021/08/21 05:50:24;;;;;;;6.80;3.60;;;16.60;1.00;;;;;;4958876;28;20207;-87
2021/08/21 05:52:50;;;;;;;3.63;3.33;;;16.70;1.00;;;;;;4961522;28;20196;-87
2021/08/21 05:55:17;;;;;;;6.70;3.63;;;16.60;1.00;;;;;;4961477;28;20212;-87
2021/08/21 05:57:42;;;;;;;4.03;3.63;;;16.60;1.00;;;;;;4962962;28;20278;-86
2021/08/21 06:00:09;;;;;;;6.30;3.47;;;16.70;1.00;;;;;;4961498;28;20215;-87
2021/08/21 06:02:34;;;;;;;5.43;3.37;;;16.80;1.00;;;;;;4959406;28;20666;-86
2021/08/21 06:05:00;;;;;;;3.50;3.20;;;16.70;1.00;;;;;;4960132;28;20239;-86
2021/08/21 06:07:26;;;;;;;3.97;3.30;;;16.80;1.00;;;;;;4963127;28;20287;-86
2021/08/21 06:09:51;;;;;;;4.17;3.33;;;16.80;1.00;;;;;;4962980;28;20249;-88
2021/08/21 06:12:17;;;;;;;3.80;3.40;;;16.90;1.00;;;;;;4977948;28;20223;-88
2021/08/21 06:14:44;;;;;;;4.33;3.93;;;16.90;1.00;;;;;;4958863;28;20260;-87
2021/08/21 06:17:10;;;;;;;4.70;3.87;;;16.90;1.00;;;;;;4959508;28;20240;-87
2021/08/21 06:19:36;;;;;;;4.30;3.33;;;17.00;1.00;;;;;;4960767;28;20248;-87
2021/08/21 06:22:02;;;;;;;3.70;3.30;;;17.00;1.00;;;;;;4963438;29;20236;-86
2021/08/21 06:24:28;;;;;;;5.63;3.63;;;17.00;1.00;;;;;;4947195;28;20581;-88
2021/08/21 06:26:54;;;;;;;3.10;2.87;;;17.10;1.00;;;;;;4943263;28;20231;-86
2021/08/21 06:29:19;;;;;;;4.63;3.20;;;17.30;1.00;;;;;;4977201;28;20255;-87
2021/08/21 06:31:45;;;;;;;3.37;3.03;;;17.40;1.00;;;;;;4960369;29;20191;-86
2021/08/21 06:34:11;;;;;;;3.50;3.20;;;17.40;1.00;;;;;;4955601;28;20195;-87
2021/08/21 06:36:36;;;;;;;5.33;2.97;;;17.50;1.00;;;;;;4959418;28;20319;-86
2021/08/21 06:39:03;;;;;;;4.23;2.90;;;17.50;1.00;;;;;;4962434;28;20671;-86
2021/08/21 06:41:28;;;;;;;4.83;3.20;;;17.60;1.00;;;;;;4957704;28;20739;-86
2021/08/21 06:43:54;;;;;;;4.10;3.07;;;17.60;1.00;;;;;;4950122;28;20217;-89
2021/08/21 06:46:20;;;;;;;4.70;3.40;;;17.70;1.00;;;;;;4947646;28;20286;-86
2021/08/21 06:48:45;;;;;;;3.77;3.10;;;17.90;1.00;;;;;;4948296;28;20202;-90
2021/08/21 06:51:11;;;;;;;5.43;3.47;;;;;;;;;;4958797;28;20201;-87
2021/08/21 06:53:37;;;;;;;3.90;3.07;;;18.00;1.00;;;;;;4967886;28;20185;-87
2021/08/21 06:56:04;;;;;;;5.17;3.90;;;18.10;1.00;;;;;;4950180;28;20219;-89
2021/08/21 06:58:30;;;;;;;5.07;3.47;;;18.30;1.00;;;;;;4951247;28;20202;-89
2021/08/21 07:00:57;;;;;;;4.47;3.07;;;18.40;1.00;;;;;;4954620;28;20285;-86
2021/08/21 07:03:23;;;;;;;3.83;3.30;;;;;;;;;;4969942;28;20606;-89
2021/08/21 07:05:48;;;;;;;4.23;3.83;;;18.60;1.00;;;;;;4960213;28;20294;-89
2021/08/21 07:08:14;;;;;;;5.20;3.63;;;18.80;1.00;;;;;;4955595;28;20192;-88
2021/08/21 07:10:40;;;;;;;5.23;3.60;;;19.00;1.00;;;;;;4958180;28;20210;-86
2021/08/21 07:13:06;;;;;;;3.90;3.30;;;19.20;1.00;;;;;;4961024;28;20308;-87
2021/08/21 07:15:32;;;;;;;4.10;3.37;;;19.40;1.00;;;;;;4951040;28;20594;-87
2021/08/21 07:17:58;;;;;;;4.17;3.40;;;19.30;1.00;;;;;;4940865;29;20247;-87
2021/08/21 07:20:25;;;;;;;5.00;3.20;;;19.40;1.00;;;;;;4951180;28;20210;-84
2021/08/21 07:22:51;;;;;;;3.83;3.20;;;19.50;1.00;;;;;;4962251;28;20263;-81
2021/08/21 07:25:16;;;;;;;5.03;3.40;;;19.60;1.00;;;;;;4962606;28;20249;-81
2021/08/21 07:27:42;;;;;;;3.60;3.30;;;19.40;1.00;;;;;;4953097;28;20191;-85
2021/08/21 07:30:08;;;;;;;6.27;3.80;;;19.40;1.00;;;;;;4945095;28;20199;-83
2021/08/21 07:32:34;;;;;;;4.40;3.40;;;19.40;1.00;;;;;;4952740;28;20274;-85
2021/08/21 07:35:02;;;;;;;4.07;3.47;;;19.50;1.00;;;;;;4953798;28;20271;-82
2021/08/21 07:37:28;;;;;;;4.70;3.37;;;19.60;1.00;;;;;;4955041;28;20203;-83
2021/08/21 07:39:54;;;;;;;4.90;3.30;;;19.60;1.00;;;;;;4957435;28;20206;-83
2021/08/21 07:42:19;;;;;;;3.67;3.30;;;19.60;1.00;;;;;;4973616;28;20800;-83
2021/08/21 07:44:45;;;;;;;3.70;2.90;;;19.70;1.00;;;;;;4959493;28;20263;-83
2021/08/21 07:47:10;;;;;;;4.53;3.60;;;19.60;1.00;;;;;;4950820;28;20196;-82
2021/08/21 07:49:36;;;;;;;3.27;2.67;;;19.60;1.00;;;;;;4951044;28;20220;-84
2021/08/21 07:52:02;;;;;;;5.00;2.90;;;19.60;1.00;;;;;;4956960;28;20301;-82
2021/08/21 07:54:27;;;;;;;4.20;3.13;;;19.70;1.00;;;;;;4957623;28;20245;-81
2021/08/21 07:56:53;;;;;;;3.10;2.77;;;19.80;1.00;;;;;;4956780;28;20288;-81
2021/08/21 07:59:18;;;;;;;3.87;2.90;;;19.70;1.00;;;;;;4952654;28;20195;-81
2021/08/21 08:01:44;;;;;;;3.83;3.20;;;19.70;1.00;;;;;;4959158;28;20215;-82
2021/08/21 08:04:10;;;;;;;6.23;3.10;;;19.60;1.00;;;;;;4955354;28;20209;-83
2021/08/21 08:06:36;;;;;;;3.83;3.13;;;19.70;1.00;;;;;;4963740;28;20264;-83
2021/08/21 08:09:02;;;;;;;4.17;2.97;;;19.90;1.00;;;;;;4954490;28;20191;-84
2021/08/21 08:11:27;;;;;;;5.03;3.17;;;20.40;1.00;;;;;;4957742;28;20211;-80
2021/08/21 08:13:53;;;;;;;3.20;2.83;;;20.40;1.00;;;;;;4960075;28;20206;-86
2021/08/21 08:16:19;;;;;;;3.87;3.17;;;20.40;1.00;;;;;;4956842;28;20217;-87
2021/08/21 08:18:44;;;;;;;5.40;2.90;;;20.50;1.00;;;;;;4962230;28;20204;-85
2021/08/21 08:21:11;;;;;;;3.13;2.77;;;20.60;1.00;;;;;;4953436;28;20294;-87
2021/08/21 08:23:37;;;;;;;4.30;3.10;;;20.80;1.00;;;;;;4952520;28;20258;-85
2021/08/21 08:26:03;;;;;;;4.53;3.20;;;21.00;1.00;;;;;;4956142;28;20194;-87
2021/08/21 08:28:28;;;;;;;5.33;3.17;;;21.20;1.00;;;;;;4957144;28;20202;-85
2021/08/21 08:30:54;;;;;;;4.77;3.40;;;21.20;1.00;;;;;;4950714;28;20223;-88
2021/08/21 08:33:22;;;;;;;5.33;3.30;;;21.40;1.00;;;;;;4956244;28;20225;-87
2021/08/21 08:35:51;;;;;;;3.30;3.00;;;21.40;1.00;;;;;;4956275;28;20219;-85
2021/08/21 08:38:18;;;;;;;5.13;3.30;;;21.50;1.00;;;;;;4950330;28;20661;-83
2021/08/21 08:40:44;;;;;;;5.17;3.10;;;21.70;1.00;;;;;;4966844;28;20194;-85
2021/08/21 08:43:10;;;;;;;3.30;3.00;;;21.80;1.00;;;;;;4956644;28;20200;-83
2021/08/21 08:45:36;;;;;;;4.43;3.30;;;22.00;1.00;;;;;;4959234;28;20202;-85
2021/08/21 08:48:02;;;;;;;4.40;3.10;;;22.20;1.00;;;;;;4955972;28;20644;-84
2021/08/21 08:50:29;;;;;;;4.00;3.30;;;22.10;1.00;;;;;;4956207;28;20212;-86
2021/08/21 08:52:55;;;;;;;3.20;2.87;;;22.40;1.00;;;;;;4958867;28;20286;-84
2021/08/21 08:55:22;;;;;;;4.37;3.43;;;22.50;1.00;;;;;;4955695;28;20252;-85
2021/08/21 08:57:48;;;;;;;2.97;2.67;;;22.70;1.00;;;;;;4953789;28;20205;-82
2021/08/21 09:00:17;;;;;;;3.80;2.93;;;22.90;1.00;;;;;;4952689;28;20277;-83
2021/08/21 09:02:49;;;;;;;3.23;2.70;;;22.90;1.00;;;;;;4952132;28;20287;-84
2021/08/21 09:05:17;;;;;;;3.87;2.70;;;22.90;1.00;;;;;;4952375;28;20278;-83
2021/08/21 09:07:51;;;;;;;3.17;2.87;;;22.80;1.00;;;;;;4952672;28;20744;-84
2021/08/21 09:10:23;;;;;;;3.30;2.67;;;23.00;1.00;;;;;;4949196;28;20259;-84
2021/08/21 09:13:01;;;;;;;2.87;2.40;;;23.20;1.00;;;;;;4942722;28;20228;-86
2021/08/21 09:15:29;;;;;;;4.03;2.67;;;23.20;1.00;;;;;;4952160;28;20223;-85
2021/08/21 09:18:04;;;;;;;2.73;2.53;;;23.20;1.00;;;;;;4947966;28;20228;-85
2021/08/21 09:20:30;;;;;;;3.10;2.87;;;23.30;1.00;;;;;;4963624;28;20212;-84
2021/08/21 09:23:17;;;;;;;4.23;3.03;;;23.40;1.00;;;;;;4953093;28;20192;-85
2021/08/21 09:25:43;;;;;;;3.10;2.73;;;23.50;1.00;;;;;;4955805;28;20208;-84
2021/08/21 09:28:24;;;;;;;3.17;2.43;;;23.60;1.00;;;;;;4955173;28;20232;-82
2021/08/21 09:31:03;;;;;;;3.60;2.73;;;23.90;1.00;;;;;;4953455;28;20207;-85
2021/08/21 09:33:29;;;;;;;3.13;2.78;;;24.10;1.00;;;;;;4970890;28;20200;-85
2021/08/21 09:35:55;;;;;;;2.80;2.45;;;24.30;1.00;;;;;;4954535;28;20228;-86
2021/08/21 09:38:28;;;;;;;3.83;2.80;;;24.20;1.00;;;;;;4955129;28;20265;-83
2021/08/21 09:41:05;;;;;;;2.70;2.50;;;24.10;1.00;;;;;;4957570;28;20206;-85
2021/08/21 09:43:36;;;;;;;4.03;2.73;;;24.20;1.00;;;;;;4956570;29;20587;-85
2021/08/21 09:46:20;;;;;;;3.10;2.80;;;24.20;1.00;;;;;;4972174;28;20356;-85
2021/08/21 09:49:06;;;;;;;3.67;2.85;;;24.50;1.00;;;;;;4957450;28;20554;-85
2021/08/21 09:51:42;;;;;;;2.88;2.45;;;24.40;1.00;;;;;;4960612;28;20204;-84
2021/08/21 09:54:21;;;;;;;2.97;2.60;;;24.50;1.00;;;;;;4950462;28;20295;-84
2021/08/21 09:56:57;;;;;;;2.85;2.47;;;24.70;1.00;;;;;;4948552;28;20322;-85
2021/08/21 09:59:33;;;;;;;4.78;3.10;;;24.70;1.00;;;;;;4951579;28;20230;-85
2021/08/21 10:02:02;;;;;;;3.15;2.85;;;24.60;1.00;;;;;;4951256;28;20196;-85
2021/08/21 10:04:28;;;;;;;4.97;2.97;;;24.40;1.00;;;;;;4953820;28;20195;-85
2021/08/21 10:06:54;;;;;;;3.33;3.03;;;24.50;1.00;;;;;;4949699;28;20192;-86
2021/08/21 10:09:20;;;;;;;3.08;2.67;;;24.70;1.00;;;;;;4955119;28;20196;-84
2021/08/21 10:11:45;;;;;;;3.95;2.60;;;24.80;1.00;;;;;;4952716;28;20285;-86
2021/08/21 10:14:14;;;;;;;5.28;3.00;;;24.80;1.00;;;;;;4950468;28;20324;-85
2021/08/21 10:16:42;;;;;;;4.60;3.40;;;24.70;1.00;;;;;;4947843;28;20220;-84
2021/08/21 10:19:08;;;;;;;3.10;2.80;;;24.70;1.00;;;;;;4971019;28;20191;-85
2021/08/21 10:21:34;;;;;;;2.75;2.53;;;24.90;1.00;;;;;;4950760;28;20272;-85
2021/08/21 10:24:00;;;;;;;3.53;2.85;;;25.00;1.00;;;;;;4965938;28;20205;-86
2021/08/21 10:26:35;;;;;;;3.42;2.80;;;25.20;1.00;;;;;;4956992;28;20199;-85
2021/08/21 10:29:01;;;;;;;3.10;2.88;;;25.30;1.00;;;;;;4955567;28;20205;-85
2021/08/21 10:31:37;;;;;;;3.60;2.97;;;25.30;1.00;;;;;;4959744;28;20193;-86
2021/08/21 10:34:04;;;;;;;3.42;2.65;;;25.30;1.00;;;;;;4954328;28;20202;-85
2021/08/21 10:36:48;;;;;;;3.15;2.50;;;25.30;1.00;;;;;;4954801;28;20219;-85
2021/08/21 10:39:37;;;;;;;2.97;2.63;;;25.40;1.00;;;;;;4954975;28;20661;-86
2021/08/21 10:42:26;;;;;;;3.00;2.55;;;25.80;1.00;;;;;;4949552;28;20220;-84
2021/08/21 10:44:53;;;;;;;2.42;2.22;;;25.80;1.00;;;;;;4958072;28;20211;-84
2021/08/21 10:47:45;;;;;;;3.95;2.20;;;25.90;1.00;;;;;;4953453;28;20725;-85
2021/08/21 10:50:14;;;;;;;2.63;2.42;;;25.70;1.00;;;;;;4939884;28;20219;-86
2021/08/21 10:53:00;;;;;;;4.13;2.45;;;25.80;1.00;;;;;;4948669;28;20300;-87
2021/08/21 10:55:42;;;;;;;3.58;2.45;;;26.00;1.00;;;;;;4952703;28;20731;-85
2021/08/21 10:58:11;;;;;;;5.72;3.10;;;26.10;1.00;;;;;;4956818;28;20198;-85
2021/08/21 11:00:40;;;;;;;2.47;2.28;;;;;;;;;;4960062;28;20193;-85
2021/08/21 11:03:10;;;;;;;3.10;2.70;;;26.20;1.00;;;;;;4951397;28;20201;-86
2021/08/21 11:05:55;;;;;;;3.45;2.67;;;;;;;;;;4954438;28;20244;-86
2021/08/21 11:08:25;;;;;;;2.50;2.30;;;26.40;1.00;;;;;;4957779;28;20186;-85
2021/08/21 11:14:09;;;;;;;5.60;3.13;;;27.00;1.00;;;;;;4952117;28;20633;-85
2021/08/21 11:17:05;;;;;;;3.83;2.38;;;27.20;1.00;;;;;;4945009;28;20224;-84
2021/08/21 11:19:33;;;;;;;2.15;1.95;;;27.30;1.00;;;;;;4959006;28;20216;-85
2021/08/21 11:22:20;;;;;;;3.10;2.10;;;27.30;1.00;;;;;;4952788;28;20196;-85
2021/08/21 11:24:52;;;;;;;4.28;2.40;;;27.60;1.00;;;;;;4958643;28;20213;-86
2021/08/21 11:27:30;;;;;;;4.38;2.50;;;27.70;1.00;;;;;;4949197;28;20206;-84
2021/08/21 11:30:11;;;;;;;4.05;2.60;;;27.80;1.00;;;;;;4953297;28;20273;-86
2021/08/21 11:32:44;;;;;;;2.85;2.58;;;28.00;1.00;;;;;;4956141;28;20185;-84
2021/08/21 11:35:25;;;;;;;4.30;2.63;;;28.20;1.00;;;;;;4963063;28;20217;-84
2021/08/21 11:37:55;;;;;;;2.95;2.20;;;28.40;1.00;;;;;;4967005;28;20936;-83
2021/08/21 11:40:23;;;;;;;2.80;2.55;;;28.40;1.00;;;;;;4949832;28;20280;-86
2021/08/21 11:42:56;;;;;;;2.45;2.25;;;28.30;1.00;;;;;;4957406;28;20697;-85
2021/08/21 11:45:23;;;;;;;2.38;2.17;;;29.10;1.00;;;;;;4955004;28;20190;-85
2021/08/21 11:47:56;;;;;;;4.00;2.63;;;29.90;1.00;;;;;;4951245;28;20186;-85
2021/08/21 11:50:28;;;;;;;2.40;2.20;;;31.00;1.00;;;;;;4967841;28;20201;-85
2021/08/21 11:52:55;;;;;;;2.47;2.22;;;32.10;1.00;;;;;;4948168;29;20186;-86
2021/08/21 11:55:23;;;;;;;2.58;2.38;;;32.10;1.00;;;;;;4949497;28;20317;-85
2021/08/21 11:57:48;;;;;;;3.88;2.45;;;33.40;1.00;;;;;;4951707;28;20198;-86
2021/08/21 12:00:24;;;;;;;2.92;2.20;;;33.80;1.00;;;;;;4956280;28;20802;-85
2021/08/21 12:02:52;;;;;;;3.45;2.30;;;34.20;1.00;;;;;;4969680;28;20208;-86
2021/08/21 12:05:31;;;;;;;1.90;1.80;;;34.20;1.00;;;;;;4947341;28;20201;-84
2021/08/21 12:08:13;;;;;;;3.08;1.98;;;34.70;1.00;;;;;;4948701;28;20186;-84
2021/08/21 12:10:45;;;;;;;2.05;1.75;;;34.80;1.00;;;;;;4950664;28;20238;-86
2021/08/21 12:13:12;;;;;;;3.13;2.15;;;35.00;1.00;;;;;;4952225;28;20678;-84
2021/08/21 12:15:38;;;;;;;1.95;1.70;;;;;;;;;;4969819;28;20218;-84
2021/08/21 12:18:07;;;;;;;2.15;1.95;;;34.90;1.00;;;;;;4951046;28;20200;-85
2021/08/21 12:20:36;;;;;;;3.28;2.35;;;34.90;1.00;;;;;;4962109;28;20199;-83
2021/08/21 12:23:04;;;;;;;3.00;1.63;;;35.00;1.00;;;;;;4951921;28;20201;-84
2021/08/21 12:25:50;;;;;;;2.20;2.00;;;35.60;1.00;;;;;;4955595;28;20789;-86
2021/08/21 12:28:19;;;;;;;2.45;2.25;;;35.40;1.00;;;;;;4956486;28;20273;-86
2021/08/21 12:31:06;;;;;;;2.45;2.25;;;35.10;1.00;;;;;;4954696;28;20186;-84
2021/08/21 12:33:37;;;;;;;2.28;2.08;;;34.20;1.00;;;;;;4945000;28;20204;-87
2021/08/21 12:36:18;;;;;;;2.28;2.08;;;34.30;1.00;;;;;;4962896;28;20314;-85
2021/08/21 12:39:05;;;;;;;2.45;2.25;;;34.10;1.00;;;;;;4963176;28;20559;-87
2021/08/21 12:41:32;;;;;;;4.50;2.60;;;33.40;1.00;;;;;;4949662;28;20705;-86
2021/08/21 12:44:05;;;;;;;2.55;2.33;;;32.90;1.00;;;;;;4954383;28;20187;-85
2021/08/21 12:46:32;;;;;;;2.65;2.45;;;32.30;1.00;;;;;;4949972;28;20689;-84
2021/08/21 12:49:06;;;;;;;3.95;2.60;;;31.40;1.00;;;;;;4955309;28;20185;-84
2021/08/21 12:51:36;;;;;;;2.65;2.45;;;30.90;1.00;;;;;;4954112;28;20592;-85
2021/08/21 12:54:07;;;;;;;2.75;2.28;;;30.50;1.00;;;;;;4954829;28;20190;-85
2021/08/21 12:56:33;;;;;;;2.92;2.70;;;30.20;1.00;;;;;;4955547;28;20316;-84
2021/08/21 12:59:09;;;;;;;3.40;2.47;;;30.40;1.00;;;;;;4951020;28;20253;-83
2021/08/21 13:01:35;;;;;;;3.17;2.40;;;30.60;1.00;;;;;;4961662;28;20542;-82
2021/08/21 13:04:05;;;;;;;3.25;2.33;;;32.00;1.00;;;;;;4958822;28;20265;-83
2021/08/21 13:06:31;;;;;;;2.15;1.95;;;33.00;1.00;;;;;;4951956;28;20207;-84
2021/08/21 13:08:56;;;;;;;1.95;1.77;;;34.30;1.00;;;;;;4949943;28;20277;-82